createdAt,value
2019-03-13T00:00:19.158Z,990.39
2019-03-13T00:01:19.826Z,990.40
2019-03-13T00:02:19.100Z,990.48
2019-03-13T00:03:19.090Z,990.52
2019-03-13T00:04:19.078Z,990.50
2019-03-13T00:05:19.349Z,990.52
2019-03-13T00:06:19.133Z,990.63
2019-03-13T00:07:19.047Z,990.67
2019-03-13T00:08:19.036Z,990.68
2019-03-13T00:09:19.025Z,990.68
2019-03-13T00:10:19.015Z,990.69
2019-03-13T00:11:19.008Z,990.70
2019-03-13T00:12:19.316Z,990.71
2019-03-13T00:13:18.984Z,990.72
2019-03-13T00:14:18.974Z,990.65
2019-03-13T00:15:19.015Z,990.74
2019-03-13T00:16:18.953Z,990.68
2019-03-13T00:17:18.941Z,990.78
2019-03-13T00:18:18.976Z,990.79
2019-03-13T00:19:19.201Z,990.83
2019-03-13T00:20:18.909Z,990.89
2019-03-13T00:21:18.902Z,990.88
2019-03-13T00:22:18.897Z,990.92
2019-03-13T00:23:18.878Z,990.85
2019-03-13T00:24:18.961Z,990.92
2019-03-13T00:25:18.859Z,990.97
2019-03-13T00:26:19.138Z,990.94
2019-03-13T00:27:18.845Z,990.94
2019-03-13T00:28:18.828Z,990.96
2019-03-13T00:29:18.822Z,991.00
2019-03-13T00:30:18.841Z,990.94
2019-03-13T00:31:19.791Z,991.00
2019-03-13T00:32:18.862Z,990.81
2019-03-13T00:33:19.057Z,990.88
2019-03-13T00:34:18.762Z,990.97
2019-03-13T00:35:18.751Z,990.93
2019-03-13T00:36:18.780Z,990.91
2019-03-13T00:37:18.734Z,990.99
2019-03-13T00:38:18.788Z,990.90
2019-03-13T00:39:18.713Z,990.98
2019-03-13T00:40:19.011Z,990.97
2019-03-13T00:41:18.689Z,991.04
2019-03-13T00:42:18.879Z,991.09
2019-03-13T00:43:18.668Z,991.08
2019-03-13T00:44:18.660Z,991.02
2019-03-13T00:45:18.649Z,991.07
2019-03-13T00:46:18.636Z,991.03
2019-03-13T00:47:18.929Z,991.11
2019-03-13T00:48:18.651Z,991.07
2019-03-13T00:49:18.604Z,991.15
2019-03-13T00:50:18.597Z,991.19
2019-03-13T00:51:18.582Z,991.10
2019-03-13T00:52:18.573Z,991.15
2019-03-13T00:53:18.564Z,991.18
2019-03-13T00:54:18.895Z,991.14
2019-03-13T00:55:18.535Z,991.15
2019-03-13T00:56:18.524Z,991.19
2019-03-13T00:57:18.519Z,991.15
2019-03-13T00:58:19.017Z,991.23
2019-03-13T00:59:18.492Z,991.19
2019-03-13T01:00:18.526Z,991.21
2019-03-13T01:01:18.761Z,991.19
2019-03-13T01:02:18.460Z,991.18
2019-03-13T01:03:18.453Z,991.21
2019-03-13T01:04:18.443Z,991.28
2019-03-13T01:05:18.430Z,991.27
2019-03-13T01:06:18.694Z,991.27
2019-03-13T01:07:18.406Z,991.20
2019-03-13T01:08:18.675Z,991.22
2019-03-13T01:09:18.385Z,991.20
2019-03-13T01:10:18.375Z,991.21
2019-03-13T01:11:18.379Z,991.35
2019-03-13T01:12:18.565Z,991.26
2019-03-13T01:13:18.347Z,991.29
2019-03-13T01:14:18.338Z,991.37
2019-03-13T01:15:18.601Z,991.36
2019-03-13T01:16:18.311Z,991.35
2019-03-13T01:17:18.303Z,991.34
2019-03-13T01:18:18.452Z,991.39
2019-03-13T01:19:18.285Z,991.34
2019-03-13T01:20:18.273Z,991.37
2019-03-13T01:21:18.259Z,991.33
2019-03-13T01:22:18.559Z,991.30
2019-03-13T01:23:18.238Z,991.27
2019-03-13T01:24:18.270Z,991.40
2019-03-13T01:25:18.220Z,991.35
2019-03-13T01:26:18.206Z,991.27
2019-03-13T01:27:18.198Z,991.33
2019-03-13T01:28:18.186Z,991.34
2019-03-13T01:29:18.483Z,991.42
2019-03-13T01:30:18.197Z,991.41
2019-03-13T01:31:18.155Z,991.31
2019-03-13T01:32:18.143Z,991.33
2019-03-13T01:33:18.133Z,991.42
2019-03-13T01:34:18.125Z,991.37
2019-03-13T01:35:18.112Z,991.34
2019-03-13T01:36:18.433Z,991.46
2019-03-13T01:37:18.090Z,991.38
2019-03-13T01:38:18.080Z,991.40
2019-03-13T01:39:18.070Z,991.37
2019-03-13T01:40:18.064Z,991.42
2019-03-13T01:41:18.049Z,991.36
2019-03-13T01:42:18.084Z,991.30
2019-03-13T01:43:18.315Z,991.40
2019-03-13T01:44:18.017Z,991.42
2019-03-13T01:45:18.011Z,991.41
2019-03-13T01:46:17.997Z,991.51
2019-03-13T01:47:17.988Z,991.50
2019-03-13T01:48:18.029Z,991.51
2019-03-13T01:49:17.964Z,991.60
2019-03-13T01:50:18.233Z,991.53
2019-03-13T01:51:17.944Z,991.63
2019-03-13T01:52:17.935Z,991.61
2019-03-13T01:53:17.924Z,991.59
2019-03-13T01:54:17.980Z,991.59
2019-03-13T01:55:18.802Z,991.56
2019-03-13T01:56:17.891Z,991.52
2019-03-13T01:57:17.881Z,991.44
2019-03-13T01:58:17.872Z,991.52
2019-03-13T01:59:17.859Z,991.52
2019-03-13T02:00:17.884Z,991.56
2019-03-13T02:01:17.842Z,991.51
2019-03-13T02:02:17.892Z,991.60
2019-03-13T02:03:18.111Z,991.57
2019-03-13T02:04:17.808Z,991.61
2019-03-13T02:05:17.800Z,991.62
2019-03-13T02:06:18.822Z,991.59
2019-03-13T02:07:17.776Z,991.56
2019-03-13T02:08:17.765Z,991.52
2019-03-13T02:09:18.082Z,991.61
2019-03-13T02:10:17.843Z,991.58
2019-03-13T02:11:17.783Z,991.54
2019-03-13T02:12:17.806Z,991.52
2019-03-13T02:13:17.715Z,991.56
2019-03-13T02:14:17.707Z,991.58
2019-03-13T02:15:17.974Z,991.57
2019-03-13T02:16:17.681Z,991.53
2019-03-13T02:17:17.673Z,991.58
2019-03-13T02:18:17.696Z,991.55
2019-03-13T02:19:18.140Z,991.51
2019-03-13T02:20:18.299Z,991.54
2019-03-13T02:21:17.629Z,991.46
2019-03-13T02:22:17.693Z,991.55
2019-03-13T02:23:17.608Z,991.40
2019-03-13T02:24:17.630Z,991.45
2019-03-13T02:25:17.587Z,991.52
2019-03-13T02:26:17.576Z,991.52
2019-03-13T02:27:17.567Z,991.47
2019-03-13T02:28:17.564Z,991.44
2019-03-13T02:29:17.544Z,991.40
2019-03-13T02:30:17.847Z,991.39
2019-03-13T02:31:17.605Z,991.42
2019-03-13T02:32:17.518Z,991.43
2019-03-13T02:33:17.797Z,991.39
2019-03-13T02:34:17.494Z,991.37
2019-03-13T02:35:17.481Z,991.32
2019-03-13T02:36:17.521Z,991.29
2019-03-13T02:37:17.462Z,991.37
2019-03-13T02:38:17.462Z,991.33
2019-03-13T02:39:17.445Z,991.22
2019-03-13T02:40:17.706Z,991.29
2019-03-13T02:41:17.419Z,991.29
2019-03-13T02:42:17.442Z,991.29
2019-03-13T02:43:17.400Z,991.28
2019-03-13T02:44:17.389Z,991.26
2019-03-13T02:45:17.381Z,991.24
2019-03-13T02:46:17.366Z,991.30
2019-03-13T02:47:19.228Z,991.21
2019-03-13T02:48:17.422Z,991.19
2019-03-13T02:49:17.337Z,991.16
2019-03-13T02:50:17.326Z,991.13
2019-03-13T02:51:17.350Z,991.21
2019-03-13T02:52:17.460Z,991.16
2019-03-13T02:53:17.330Z,991.15
2019-03-13T02:54:17.641Z,991.12
2019-03-13T02:55:17.274Z,991.12
2019-03-13T02:56:17.264Z,991.20
2019-03-13T02:57:17.255Z,991.20
2019-03-13T02:58:17.251Z,991.17
2019-03-13T02:59:17.230Z,991.13
2019-03-13T03:01:50.062Z,991.19
2019-03-13T03:02:49.717Z,991.23
2019-03-13T03:03:49.715Z,991.22
2019-03-13T03:04:49.699Z,991.21
2019-03-13T03:05:49.681Z,991.27
2019-03-13T03:06:49.676Z,991.25
2019-03-13T03:07:49.720Z,991.20
2019-03-13T03:08:49.955Z,991.17
2019-03-13T03:09:49.657Z,991.18
2019-03-13T03:10:49.629Z,991.20
2019-03-13T03:11:49.617Z,991.10
2019-03-13T03:12:49.618Z,991.14
2019-03-13T03:13:49.631Z,991.17
2019-03-13T03:14:49.588Z,991.22
2019-03-13T03:15:49.853Z,991.15
2019-03-13T03:16:49.565Z,991.12
2019-03-13T03:17:49.555Z,991.26
2019-03-13T03:18:49.547Z,991.28
2019-03-13T03:19:49.573Z,991.19
2019-03-13T03:20:49.534Z,991.18
2019-03-13T03:21:49.527Z,991.17
2019-03-13T03:22:49.646Z,991.20
2019-03-13T03:23:49.494Z,991.09
2019-03-13T03:24:49.492Z,991.15
2019-03-13T03:25:49.530Z,991.11
2019-03-13T03:26:49.462Z,991.10
2019-03-13T03:27:49.734Z,991.09
2019-03-13T03:28:49.449Z,991.11
2019-03-13T03:29:49.431Z,991.20
2019-03-13T03:30:49.421Z,991.19
2019-03-13T03:31:49.449Z,991.08
2019-03-13T03:32:49.420Z,991.16
2019-03-13T03:33:49.411Z,991.09
2019-03-13T03:34:49.384Z,991.15
2019-03-13T03:35:49.367Z,991.10
2019-03-13T03:36:49.361Z,991.10
2019-03-13T03:37:49.385Z,991.13
2019-03-13T03:38:49.336Z,991.15
2019-03-13T03:39:49.604Z,991.02
2019-03-13T03:40:49.324Z,991.07
2019-03-13T03:41:49.303Z,991.06
2019-03-13T03:42:49.297Z,991.06
2019-03-13T03:43:49.346Z,991.05
2019-03-13T03:44:49.271Z,991.13
2019-03-13T03:45:49.268Z,991.15
2019-03-13T03:46:49.555Z,991.07
2019-03-13T03:47:49.239Z,991.10
2019-03-13T03:48:49.232Z,991.11
2019-03-13T03:49:49.254Z,991.09
2019-03-13T03:50:49.212Z,991.12
2019-03-13T03:51:49.208Z,991.14
2019-03-13T03:52:49.199Z,991.13
2019-03-13T03:53:49.455Z,991.10
2019-03-13T03:54:49.166Z,991.07
2019-03-13T03:55:49.188Z,991.12
2019-03-13T03:56:49.146Z,991.12
2019-03-13T03:57:49.145Z,991.11
2019-03-13T03:58:49.125Z,991.11
2019-03-13T03:59:49.263Z,991.16
2019-03-13T04:00:49.390Z,991.09
2019-03-13T04:01:49.136Z,991.07
2019-03-13T04:02:49.082Z,991.14
2019-03-13T04:03:49.075Z,991.09
2019-03-13T04:04:49.061Z,991.09
2019-03-13T04:05:49.053Z,991.16
2019-03-13T04:06:49.042Z,991.02
2019-03-13T04:07:49.347Z,991.08
2019-03-13T04:08:49.059Z,991.20
2019-03-13T04:09:49.035Z,991.27
2019-03-13T04:10:48.998Z,991.13
2019-03-13T04:11:49.042Z,991.21
2019-03-13T04:12:48.977Z,990.99
2019-03-13T04:13:49.058Z,991.07
2019-03-13T04:14:49.369Z,991.03
2019-03-13T04:15:48.945Z,990.98
2019-03-13T04:16:48.937Z,991.09
2019-03-13T04:17:48.924Z,990.96
2019-03-13T04:18:48.919Z,990.94
2019-03-13T04:19:48.959Z,990.93
2019-03-13T04:20:48.894Z,990.91
2019-03-13T04:21:49.164Z,990.99
2019-03-13T04:22:49.602Z,991.03
2019-03-13T04:23:48.865Z,991.01
2019-03-13T04:24:48.853Z,991.02
2019-03-13T04:25:49.629Z,991.00
2019-03-13T04:26:48.831Z,990.97
2019-03-13T04:27:48.819Z,990.99
2019-03-13T04:28:49.090Z,991.02
2019-03-13T04:29:48.800Z,990.99
2019-03-13T04:30:48.790Z,991.05
2019-03-13T04:31:48.811Z,990.93
2019-03-13T04:32:48.767Z,990.88
2019-03-13T04:33:48.757Z,990.88
2019-03-13T04:34:48.746Z,990.96
2019-03-13T04:35:49.041Z,990.92
2019-03-13T04:36:48.728Z,990.91
2019-03-13T04:37:48.777Z,990.88
2019-03-13T04:38:48.706Z,990.92
2019-03-13T04:39:48.693Z,990.85
2019-03-13T04:40:48.683Z,990.89
2019-03-13T04:41:48.676Z,990.85
2019-03-13T04:42:48.953Z,990.88
2019-03-13T04:43:48.684Z,990.83
2019-03-13T04:44:48.640Z,990.78
2019-03-13T04:45:48.633Z,990.77
2019-03-13T04:46:48.632Z,990.85
2019-03-13T04:47:48.609Z,990.82
2019-03-13T04:48:48.599Z,990.85
2019-03-13T04:49:48.902Z,990.90
2019-03-13T04:50:48.579Z,990.80
2019-03-13T04:51:48.569Z,990.84
2019-03-13T04:52:48.563Z,990.86
2019-03-13T04:53:48.557Z,990.76
2019-03-13T04:54:48.537Z,990.94
2019-03-13T04:55:48.814Z,990.82
2019-03-13T04:56:48.790Z,990.74
2019-03-13T04:57:48.505Z,990.86
2019-03-13T04:58:48.495Z,990.76
2019-03-13T04:59:48.482Z,990.81
2019-03-13T05:00:48.473Z,990.82
2019-03-13T05:01:48.495Z,990.84
2019-03-13T05:02:48.451Z,990.88
2019-03-13T05:03:48.905Z,990.83
2019-03-13T05:04:48.432Z,990.89
2019-03-13T05:05:48.423Z,990.90
2019-03-13T05:06:48.415Z,990.92
2019-03-13T05:07:48.520Z,990.94
2019-03-13T05:08:48.389Z,990.88
2019-03-13T05:09:48.381Z,990.91
2019-03-13T05:10:48.788Z,990.94
2019-03-13T05:11:48.362Z,990.94
2019-03-13T05:12:48.385Z,990.87
2019-03-13T05:13:49.447Z,990.96
2019-03-13T05:14:48.330Z,990.94
2019-03-13T05:15:48.350Z,990.99
2019-03-13T05:16:48.304Z,990.90
2019-03-13T05:17:48.573Z,990.87
2019-03-13T05:18:48.292Z,990.96
2019-03-13T05:19:48.306Z,990.96
2019-03-13T05:20:48.262Z,990.95
2019-03-13T05:21:48.252Z,990.98
2019-03-13T05:22:48.244Z,991.00
2019-03-13T05:23:48.232Z,990.98
2019-03-13T05:24:48.516Z,991.07
2019-03-13T05:25:48.252Z,991.10
2019-03-13T05:26:48.197Z,991.01
2019-03-13T05:27:48.192Z,991.03
2019-03-13T05:28:48.177Z,991.02
2019-03-13T05:29:48.191Z,991.02
2019-03-13T05:30:48.156Z,991.03
2019-03-13T05:31:48.486Z,991.08
2019-03-13T05:32:48.134Z,991.01
2019-03-13T05:33:48.124Z,990.96
2019-03-13T05:34:49.095Z,991.08
2019-03-13T05:35:48.103Z,991.02
2019-03-13T05:36:48.092Z,991.08
2019-03-13T05:37:48.127Z,990.98
2019-03-13T05:38:48.374Z,990.87
2019-03-13T05:39:48.061Z,990.98
2019-03-13T05:40:48.056Z,991.00
2019-03-13T05:41:48.040Z,991.12
2019-03-13T05:42:48.032Z,990.93
2019-03-13T05:43:48.143Z,991.03
2019-03-13T05:44:48.009Z,990.89
2019-03-13T05:45:48.336Z,991.02
2019-03-13T05:46:47.988Z,990.98
2019-03-13T05:47:47.977Z,990.93
2019-03-13T05:48:47.983Z,990.92
2019-03-13T05:49:48.023Z,990.98
2019-03-13T05:50:47.946Z,991.02
2019-03-13T05:51:47.936Z,991.09
2019-03-13T05:52:48.556Z,991.06
2019-03-13T05:53:47.914Z,991.05
2019-03-13T05:54:47.937Z,991.08
2019-03-13T05:55:48.622Z,991.10
2019-03-13T05:56:47.882Z,990.93
2019-03-13T05:57:47.945Z,990.86
2019-03-13T05:58:48.298Z,990.99
2019-03-13T05:59:48.243Z,990.92
2019-03-13T06:00:48.309Z,990.88
2019-03-13T06:01:48.141Z,990.96
2019-03-13T06:02:48.635Z,991.04
2019-03-13T06:03:47.834Z,991.05
2019-03-13T06:04:47.857Z,990.99
2019-03-13T06:05:48.345Z,991.01
2019-03-13T06:06:47.856Z,990.91
2019-03-13T06:07:47.856Z,990.97
2019-03-13T06:08:47.763Z,990.96
2019-03-13T06:09:47.753Z,990.98
2019-03-13T06:10:47.733Z,990.96
2019-03-13T06:11:47.723Z,990.93
2019-03-13T06:12:48.033Z,991.01
2019-03-13T06:13:47.742Z,990.94
2019-03-13T06:14:47.693Z,991.03
2019-03-13T06:15:47.685Z,990.91
2019-03-13T06:16:47.670Z,990.95
2019-03-13T06:17:47.662Z,990.95
2019-03-13T06:18:47.716Z,990.92
2019-03-13T06:19:48.083Z,990.95
2019-03-13T06:20:47.639Z,990.93
2019-03-13T06:21:47.618Z,990.93
2019-03-13T06:22:47.699Z,990.85
2019-03-13T06:23:48.123Z,990.91
2019-03-13T06:24:47.590Z,990.89
2019-03-13T06:25:47.694Z,990.86
2019-03-13T06:26:48.018Z,990.82
2019-03-13T06:27:47.610Z,990.83
2019-03-13T06:28:47.556Z,990.82
2019-03-13T06:29:47.552Z,990.85
2019-03-13T06:30:47.533Z,990.83
2019-03-13T06:31:47.551Z,990.92
2019-03-13T06:32:47.513Z,990.80
2019-03-13T06:33:47.839Z,990.93
2019-03-13T06:34:47.513Z,990.81
2019-03-13T06:35:47.470Z,990.70
2019-03-13T06:36:47.487Z,990.84
2019-03-13T06:37:47.488Z,990.81
2019-03-13T06:38:47.452Z,990.90
2019-03-13T06:39:47.432Z,990.87
2019-03-13T06:40:47.834Z,990.80
2019-03-13T06:41:47.406Z,990.93
2019-03-13T06:42:47.397Z,990.96
2019-03-13T06:43:47.467Z,990.86
2019-03-13T06:44:47.373Z,990.96
2019-03-13T06:45:47.365Z,990.84
2019-03-13T06:46:47.353Z,990.91
2019-03-13T06:47:47.628Z,990.98
2019-03-13T06:48:47.335Z,990.85
2019-03-13T06:49:47.355Z,990.95
2019-03-13T06:50:47.390Z,991.02
2019-03-13T06:51:47.303Z,991.01
2019-03-13T06:52:47.293Z,990.89
2019-03-13T06:53:47.281Z,990.83
2019-03-13T06:54:47.651Z,990.84
2019-03-13T06:55:47.299Z,990.96
2019-03-13T06:56:47.253Z,990.78
2019-03-13T06:57:47.249Z,990.94
2019-03-13T06:58:47.226Z,990.85
2019-03-13T06:59:47.215Z,990.96
2019-03-13T07:00:47.205Z,990.82
2019-03-13T07:01:47.626Z,990.88
2019-03-13T07:02:47.189Z,990.90
2019-03-13T07:03:47.171Z,990.87
2019-03-13T07:04:47.161Z,990.90
2019-03-13T07:05:47.152Z,990.88
2019-03-13T07:06:47.140Z,990.87
2019-03-13T07:07:47.168Z,990.87
2019-03-13T07:08:47.595Z,990.90
2019-03-13T07:09:47.113Z,990.88
2019-03-13T07:10:48.081Z,990.78
2019-03-13T07:11:47.097Z,990.91
2019-03-13T07:12:48.084Z,990.86
2019-03-13T07:13:47.106Z,990.96
2019-03-13T07:14:47.063Z,990.77
2019-03-13T07:15:47.045Z,990.80
2019-03-13T07:16:47.033Z,990.87
2019-03-13T07:17:47.023Z,990.90
2019-03-13T07:18:47.011Z,990.79
2019-03-13T07:19:47.056Z,990.77
2019-03-13T07:20:46.990Z,990.68
2019-03-13T07:21:47.375Z,990.68
2019-03-13T07:22:46.980Z,990.74
2019-03-13T07:23:46.958Z,990.78
2019-03-13T07:24:46.949Z,990.79
2019-03-13T07:25:47.773Z,990.72
2019-03-13T07:26:46.935Z,990.67
2019-03-13T07:27:46.916Z,990.75
2019-03-13T07:28:46.915Z,990.74
2019-03-13T07:29:46.907Z,990.57
2019-03-13T07:30:47.532Z,990.70
2019-03-13T07:31:46.922Z,990.60
2019-03-13T07:32:46.868Z,990.70
2019-03-13T07:33:47.311Z,990.77
2019-03-13T07:34:46.847Z,990.81
2019-03-13T07:35:46.831Z,990.55
2019-03-13T07:36:46.837Z,990.55
2019-03-13T07:37:47.042Z,990.73
2019-03-13T07:38:46.804Z,990.62
2019-03-13T07:39:46.849Z,990.69
2019-03-13T07:40:46.962Z,990.59
2019-03-13T07:41:46.775Z,990.61
2019-03-13T07:42:46.762Z,990.61
2019-03-13T07:43:46.791Z,990.67
2019-03-13T07:44:46.735Z,990.69
2019-03-13T07:45:46.981Z,990.56
2019-03-13T07:46:46.725Z,990.63
2019-03-13T07:47:46.895Z,990.66
2019-03-13T07:48:46.918Z,990.59
2019-03-13T07:49:47.122Z,990.48
2019-03-13T07:50:46.800Z,990.50
2019-03-13T07:51:47.133Z,990.59
2019-03-13T07:52:46.720Z,990.66
2019-03-13T07:53:46.873Z,990.76
2019-03-13T07:54:46.661Z,990.56
2019-03-13T07:55:46.671Z,990.62
2019-03-13T07:56:46.611Z,990.54
2019-03-13T07:57:46.619Z,990.66
2019-03-13T07:58:47.083Z,990.60
2019-03-13T07:59:46.611Z,990.73
2019-03-13T08:00:46.566Z,990.71
2019-03-13T08:01:46.589Z,990.75
2019-03-13T08:02:46.553Z,990.73
2019-03-13T08:03:46.534Z,990.73
2019-03-13T08:04:46.527Z,990.58
2019-03-13T08:05:47.020Z,990.72
2019-03-13T08:06:46.507Z,990.71
2019-03-13T08:07:46.520Z,990.77
2019-03-13T08:08:46.493Z,990.69
2019-03-13T08:09:46.476Z,990.59
2019-03-13T08:10:46.470Z,990.53
2019-03-13T08:11:46.453Z,990.66
2019-03-13T08:12:46.957Z,990.66
2019-03-13T08:13:46.483Z,990.65
2019-03-13T08:14:46.426Z,990.53
2019-03-13T08:15:46.493Z,990.57
2019-03-13T08:16:46.410Z,990.64
2019-03-13T08:17:46.480Z,990.58
2019-03-13T08:18:46.429Z,990.67
2019-03-13T08:19:46.747Z,990.51
2019-03-13T08:20:49.112Z,990.55
2019-03-13T08:21:46.379Z,990.60
2019-03-13T08:22:46.331Z,990.65
2019-03-13T08:23:46.321Z,990.58
2019-03-13T08:24:46.443Z,990.69
2019-03-13T08:25:46.328Z,990.60
2019-03-13T08:26:46.742Z,990.59
2019-03-13T08:27:46.283Z,990.51
2019-03-13T08:28:47.264Z,990.74
2019-03-13T08:29:46.534Z,990.47
2019-03-13T08:30:47.795Z,990.54
2019-03-13T08:31:47.327Z,990.53
2019-03-13T08:32:46.490Z,990.54
2019-03-13T08:33:46.539Z,990.62
2019-03-13T08:34:46.225Z,990.62
2019-03-13T08:35:47.141Z,990.45
2019-03-13T08:36:46.201Z,990.58
2019-03-13T08:37:46.425Z,990.56
2019-03-13T08:38:46.222Z,990.59
2019-03-13T08:39:46.159Z,990.50
2019-03-13T08:40:46.476Z,990.57
2019-03-13T08:41:46.130Z,990.58
2019-03-13T08:42:46.258Z,990.51
2019-03-13T08:43:46.350Z,990.45
2019-03-13T08:44:46.182Z,990.57
2019-03-13T08:45:46.275Z,990.42
2019-03-13T08:46:46.149Z,990.39
2019-03-13T08:47:46.210Z,990.35
2019-03-13T08:48:46.072Z,990.29
2019-03-13T08:49:46.096Z,990.36
2019-03-13T08:50:46.033Z,990.50
2019-03-13T08:51:46.026Z,990.27
2019-03-13T08:52:46.023Z,990.35
2019-03-13T08:53:46.606Z,990.31
2019-03-13T08:54:46.143Z,990.37
2019-03-13T08:55:46.831Z,990.33
2019-03-13T08:56:46.708Z,990.16
2019-03-13T08:57:46.060Z,990.45
2019-03-13T08:58:46.067Z,990.38
2019-03-13T08:59:45.989Z,990.21
2019-03-13T09:00:45.928Z,990.46
2019-03-13T09:01:45.944Z,990.50
2019-03-13T09:02:45.906Z,990.20
2019-03-13T09:03:45.897Z,990.44
2019-03-13T09:04:45.885Z,990.25
2019-03-13T09:05:46.291Z,990.25
2019-03-13T09:06:45.864Z,990.19
2019-03-13T09:07:46.020Z,990.27
2019-03-13T09:08:45.840Z,990.33
2019-03-13T09:09:45.843Z,990.24
2019-03-13T09:10:45.850Z,990.14
2019-03-13T09:11:45.808Z,990.25
2019-03-13T09:12:45.801Z,990.29
2019-03-13T09:13:45.821Z,990.16
2019-03-13T09:14:45.777Z,990.18
2019-03-13T09:15:45.765Z,990.18
2019-03-13T09:16:45.756Z,990.12
2019-03-13T09:17:45.758Z,990.22
2019-03-13T09:18:45.742Z,990.19
2019-03-13T09:19:45.806Z,990.15
2019-03-13T09:20:45.926Z,990.01
2019-03-13T09:21:46.178Z,990.24
2019-03-13T09:22:45.695Z,990.44
2019-03-13T09:23:45.710Z,989.99
2019-03-13T09:24:45.670Z,990.12
2019-03-13T09:25:45.711Z,990.14
2019-03-13T09:26:45.660Z,990.10
2019-03-13T09:27:45.641Z,990.22
2019-03-13T09:28:45.630Z,990.15
2019-03-13T09:29:46.645Z,990.01
2019-03-13T09:30:45.839Z,990.05
2019-03-13T09:31:45.674Z,990.11
2019-03-13T09:32:45.775Z,990.22
2019-03-13T09:33:45.586Z,990.17
2019-03-13T09:34:45.565Z,990.23
2019-03-13T09:35:45.555Z,990.30
2019-03-13T09:36:45.558Z,990.28
2019-03-13T09:37:45.615Z,990.18
2019-03-13T09:38:45.520Z,990.28
2019-03-13T09:39:45.531Z,990.16
2019-03-13T09:40:45.500Z,990.19
2019-03-13T09:41:45.895Z,990.26
2019-03-13T09:42:45.512Z,990.14
2019-03-13T09:43:46.464Z,990.23
2019-03-13T09:44:45.483Z,990.06
2019-03-13T09:45:45.789Z,990.16
2019-03-13T09:46:45.557Z,990.05
2019-03-13T09:47:45.422Z,990.16
2019-03-13T09:48:45.417Z,990.26
2019-03-13T09:49:46.276Z,990.11
2019-03-13T09:50:45.418Z,990.14
2019-03-13T09:51:45.381Z,990.07
2019-03-13T09:52:45.378Z,990.00
2019-03-13T09:53:45.697Z,990.12
2019-03-13T09:54:45.352Z,990.30
2019-03-13T09:55:45.503Z,990.08
2019-03-13T09:56:45.343Z,990.19
2019-03-13T09:57:45.318Z,990.24
2019-03-13T09:58:45.306Z,990.11
2019-03-13T09:59:45.330Z,990.04
2019-03-13T10:00:45.672Z,989.98
2019-03-13T10:01:45.317Z,989.95
2019-03-13T10:02:45.437Z,990.05
2019-03-13T10:03:45.257Z,990.07
2019-03-13T10:04:45.297Z,990.03
2019-03-13T10:05:45.388Z,989.99
2019-03-13T10:06:45.228Z,989.96
2019-03-13T10:07:45.744Z,989.85
2019-03-13T10:08:45.366Z,990.03
2019-03-13T10:09:45.307Z,990.10
2019-03-13T10:10:45.624Z,989.92
2019-03-13T10:11:45.171Z,989.89
2019-03-13T10:12:45.190Z,989.89
2019-03-13T10:13:45.198Z,990.06
2019-03-13T10:14:45.580Z,989.89
2019-03-13T10:15:45.138Z,989.98
2019-03-13T10:16:46.046Z,990.06
2019-03-13T10:17:45.119Z,989.95
2019-03-13T10:18:45.093Z,989.91
2019-03-13T10:19:45.371Z,989.89
2019-03-13T10:20:45.089Z,989.94
2019-03-13T10:21:45.215Z,990.07
2019-03-13T10:22:45.075Z,989.95
2019-03-13T10:23:45.048Z,990.06
2019-03-13T10:24:45.031Z,989.97
2019-03-13T10:25:45.046Z,989.71
2019-03-13T10:26:45.045Z,989.97
2019-03-13T10:27:45.506Z,989.86
2019-03-13T10:28:45.095Z,989.80
2019-03-13T10:29:45.003Z,989.78
2019-03-13T10:30:45.007Z,989.82
2019-03-13T10:31:46.627Z,989.81
2019-03-13T10:32:44.981Z,989.78
2019-03-13T10:33:44.939Z,989.76
2019-03-13T10:34:46.063Z,989.86
2019-03-13T10:35:44.925Z,989.88
2019-03-13T10:36:44.956Z,989.89
2019-03-13T10:37:45.116Z,989.82
2019-03-13T10:38:45.007Z,989.91
2019-03-13T10:39:44.932Z,989.90
2019-03-13T10:40:46.504Z,989.96
2019-03-13T10:41:45.490Z,989.91
2019-03-13T10:42:44.967Z,989.80
2019-03-13T10:43:45.509Z,989.90
2019-03-13T10:44:44.833Z,990.05
2019-03-13T10:45:45.509Z,989.95
2019-03-13T10:46:45.508Z,990.06
2019-03-13T10:47:45.184Z,989.86
2019-03-13T10:48:45.526Z,989.99
2019-03-13T10:49:45.225Z,989.91
2019-03-13T10:50:45.501Z,989.89
2019-03-13T10:51:44.853Z,989.72
2019-03-13T10:52:44.734Z,989.82
2019-03-13T10:53:44.837Z,989.75
2019-03-13T10:54:46.534Z,989.85
2019-03-13T10:55:44.770Z,989.79
2019-03-13T10:56:44.694Z,989.82
2019-03-13T10:57:44.682Z,989.75
2019-03-13T10:58:44.669Z,989.73
2019-03-13T10:59:44.659Z,989.74
2019-03-13T11:00:44.674Z,989.62
2019-03-13T11:01:45.139Z,989.79
2019-03-13T11:02:44.711Z,989.68
2019-03-13T11:03:44.621Z,989.75
2019-03-13T11:04:44.614Z,989.75
2019-03-13T11:05:44.605Z,989.70
2019-03-13T11:06:54.391Z,989.75
2019-03-13T11:07:45.622Z,989.76
2019-03-13T11:08:45.039Z,989.65
2019-03-13T11:09:44.598Z,989.66
2019-03-13T11:10:44.544Z,989.65
2019-03-13T11:11:44.557Z,989.67
2019-03-13T11:12:44.626Z,989.77
2019-03-13T11:13:44.623Z,989.63
2019-03-13T11:14:44.579Z,989.71
2019-03-13T11:15:45.024Z,989.75
2019-03-13T11:16:44.639Z,989.70
2019-03-13T11:17:44.549Z,989.74
2019-03-13T11:18:44.498Z,989.74
2019-03-13T11:19:44.739Z,989.78
2019-03-13T11:20:44.517Z,989.82
2019-03-13T11:21:44.712Z,989.72
2019-03-13T11:22:44.938Z,989.83
2019-03-13T11:23:44.562Z,989.85
2019-03-13T11:24:45.045Z,990.05
2019-03-13T11:25:44.751Z,989.89
2019-03-13T11:26:44.464Z,989.92
2019-03-13T11:27:44.577Z,989.89
2019-03-13T11:28:44.354Z,989.72
2019-03-13T11:29:44.461Z,989.93
2019-03-13T11:30:44.376Z,989.79
2019-03-13T11:31:44.741Z,989.92
2019-03-13T11:32:44.527Z,989.76
2019-03-13T11:33:47.225Z,989.84
2019-03-13T11:34:44.472Z,989.87
2019-03-13T11:35:44.407Z,989.78
2019-03-13T11:36:44.471Z,989.85
2019-03-13T11:37:44.292Z,989.90
2019-03-13T11:38:44.285Z,989.81
2019-03-13T11:39:44.293Z,989.87
2019-03-13T11:40:44.323Z,989.75
2019-03-13T11:41:44.996Z,989.91
2019-03-13T11:42:44.256Z,989.63
2019-03-13T11:43:44.307Z,989.71
2019-03-13T11:44:44.215Z,989.80
2019-03-13T11:45:44.235Z,989.76
2019-03-13T11:46:44.270Z,989.94
2019-03-13T11:47:44.195Z,990.01
2019-03-13T11:48:44.289Z,989.73
2019-03-13T11:49:44.364Z,989.89
2019-03-13T11:50:45.058Z,989.94
2019-03-13T11:51:44.216Z,989.88
2019-03-13T11:52:44.395Z,989.85
2019-03-13T11:53:44.551Z,989.87
2019-03-13T11:54:44.200Z,989.79
2019-03-13T11:55:44.989Z,989.89
2019-03-13T11:56:44.076Z,989.83
2019-03-13T11:57:44.048Z,989.87
2019-03-13T11:58:44.037Z,989.89
2019-03-13T11:59:44.511Z,989.77
2019-03-13T12:00:44.289Z,989.82
2019-03-13T12:01:45.898Z,989.77
2019-03-13T12:02:44.009Z,989.66
2019-03-13T12:03:44.590Z,989.71
2019-03-13T12:04:44.032Z,989.76
2019-03-13T12:05:44.065Z,989.62
2019-03-13T12:06:44.326Z,989.66
2019-03-13T12:07:44.899Z,989.60
2019-03-13T12:08:45.502Z,989.61
2019-03-13T12:09:44.240Z,989.51
2019-03-13T12:10:43.924Z,989.57
2019-03-13T12:11:44.211Z,989.76
2019-03-13T12:12:44.613Z,989.70
2019-03-13T12:13:45.110Z,989.65
2019-03-13T12:14:43.947Z,989.61
2019-03-13T12:15:44.144Z,989.61
2019-03-13T12:16:43.954Z,989.65
2019-03-13T12:17:45.490Z,989.61
2019-03-13T12:18:43.930Z,989.57
2019-03-13T12:19:44.499Z,989.64
2019-03-13T12:20:44.281Z,989.55
2019-03-13T12:21:43.798Z,989.55
2019-03-13T12:22:43.780Z,989.46
2019-03-13T12:23:43.774Z,989.43
2019-03-13T12:24:43.758Z,989.51
2019-03-13T12:25:43.819Z,989.45
2019-03-13T12:26:44.216Z,989.52
2019-03-13T12:27:43.735Z,989.49
2019-03-13T12:28:43.738Z,989.46
2019-03-13T12:29:43.708Z,989.53